Cold Spring Hills, New York
Current Conditions -  °F | °C
As of 7:53 AM on Friday 31 Oct 2014 (Local Time) from KFRG Reporting Station
Overcast Overcast  
Wind Chill: 44°   Ceiling: 5000
Heat Index: 47°   Visibility: 10mi
Dew Point: 37°   Wind: 6mph
Humidity: 68%   Direction: 30°NNE
Pressure: 30.01"   Gusts: NA
Location:  40.8966°N, 73.4362°W
Report Text: KFRG 311153Z 03005KT 10SM OVC050 08/03 A3001 RMK AO2 SLP162 T00830028 10083 20067 51004
Loading
Personal Weather Stations






























Interactive Weather Map
Tropical Storm Tracking
New forecast layout! Learn more

10-Day Weather Forecast

Advertisements
Track Severe Weather on mobile